createdAt,value
2018-11-20T00:00:45.022Z,99843.55
2018-11-20T00:04:14.096Z,99849.20
2018-11-20T00:07:36.405Z,99850.09
2018-11-20T00:11:06.739Z,99841.33
2018-11-20T00:14:35.848Z,99849.64
2018-11-20T00:18:04.861Z,99850.95
2018-11-20T00:21:33.826Z,99848.76
2018-11-20T00:25:05.665Z,99842.64
2018-11-20T00:28:17.868Z,99843.53
2018-11-20T00:31:45.874Z,99852.66
2018-11-20T00:35:07.481Z,99857.01
2018-11-20T00:38:22.454Z,99852.61
2018-11-20T00:41:57.548Z,99846.16
2018-11-20T00:45:29.655Z,99838.28
2018-11-20T00:48:51.735Z,99832.17
2018-11-20T00:52:18.184Z,99826.05
2018-11-20T00:56:44.944Z,99833.00
2018-11-20T01:00:13.899Z,99823.90
2018-11-20T01:03:40.336Z,99814.74
2018-11-20T01:07:02.208Z,99806.06
2018-11-20T01:10:25.564Z,99812.15
2018-11-20T01:13:47.563Z,99811.28
2018-11-20T01:17:10.716Z,99818.26
2018-11-20T01:20:36.590Z,99808.69
2018-11-20T01:24:02.604Z,99810.41
2018-11-20T01:27:41.049Z,99816.07
2018-11-20T01:30:59.383Z,99804.31
2018-11-20T01:34:10.939Z,99804.31
2018-11-20T01:37:37.011Z,99791.26
2018-11-20T01:41:05.446Z,99787.31
2018-11-20T01:44:28.641Z,99781.22
2018-11-20T01:48:03.992Z,99779.49
2018-11-20T01:51:25.702Z,99768.59
2018-11-20T01:54:45.595Z,99760.73
2018-11-20T01:58:01.807Z,99750.71
2018-11-20T02:01:23.609Z,99751.59
2018-11-20T02:04:58.924Z,99731.54
2018-11-20T02:08:20.539Z,99728.48
2018-11-20T02:11:52.748Z,99715.41
2018-11-20T02:15:22.478Z,99717.58
2018-11-20T02:18:48.333Z,99710.59
2018-11-20T02:22:29.495Z,99701.44
2018-11-20T02:25:46.379Z,99699.25
2018-11-20T02:29:27.638Z,99697.53
2018-11-20T02:33:00.051Z,99694.89
2018-11-20T02:36:19.900Z,99694.47
2018-11-20T02:39:43.080Z,99695.78
2018-11-20T02:43:04.667Z,99685.76
2018-11-20T02:46:27.816Z,99675.30
2018-11-20T02:49:48.675Z,99678.33
2018-11-20T02:53:29.997Z,99678.79
2018-11-20T02:57:02.385Z,99667.91
2018-11-20T03:00:14.829Z,99659.60
2018-11-20T03:03:43.859Z,99658.73
2018-11-20T03:07:22.073Z,99646.06
2018-11-20T03:10:45.278Z,99649.13
2018-11-20T03:14:20.600Z,99643.90
2018-11-20T03:17:32.482Z,99637.36
2018-11-20T03:20:54.330Z,99640.43
2018-11-20T03:24:16.499Z,99635.17
2018-11-20T03:27:38.562Z,99628.64
2018-11-20T03:31:29.990Z,99624.28
2018-11-20T03:34:48.404Z,99624.72
2018-11-20T03:38:04.461Z,99623.43
2018-11-20T03:41:29.986Z,99622.52
2018-11-20T03:44:51.967Z,99619.90
2018-11-20T03:48:15.147Z,99620.78
2018-11-20T03:51:37.206Z,99623.84
2018-11-20T03:54:50.976Z,99616.42
2018-11-20T03:58:29.372Z,99607.27
2018-11-20T04:01:51.984Z,99607.72
2018-11-20T04:05:20.981Z,99596.81
2018-11-20T04:08:49.818Z,99595.48
2018-11-20T04:12:11.551Z,99587.20
2018-11-20T04:15:33.644Z,99580.20
2018-11-20T04:19:02.940Z,99580.66
2018-11-20T04:22:24.634Z,99578.03
2018-11-20T04:25:36.683Z,99572.82
2018-11-20T04:29:02.809Z,99570.61
2018-11-20T04:32:21.298Z,99560.56
2018-11-20T04:35:42.598Z,99559.32
2018-11-20T04:39:08.566Z,99552.34
2018-11-20T04:42:34.405Z,99557.06
2018-11-20T04:45:59.355Z,99538.35
2018-11-20T04:49:20.981Z,99528.36
2018-11-20T04:52:56.185Z,99525.32
2018-11-20T04:56:23.013Z,99530.12
2018-11-20T04:59:55.236Z,99530.58
2018-11-20T05:03:24.621Z,99528.37
2018-11-20T05:06:47.895Z,99535.78
2018-11-20T05:10:16.981Z,99531.40
2018-11-20T05:13:39.193Z,99535.77
2018-11-20T05:16:59.914Z,99533.55
2018-11-20T05:20:23.225Z,99544.88
2018-11-20T05:23:37.924Z,99539.20
2018-11-20T05:26:59.802Z,99541.82
2018-11-20T05:30:34.948Z,99528.36
2018-11-20T05:33:46.790Z,99530.94
2018-11-20T05:37:05.145Z,99523.97
2018-11-20T05:40:19.761Z,99518.76
2018-11-20T05:43:41.576Z,99515.25
2018-11-20T05:46:57.367Z,99519.67
2018-11-20T05:50:32.605Z,99523.58
2018-11-20T05:53:54.665Z,99524.88
2018-11-20T05:57:10.744Z,99525.29
2018-11-20T06:00:40.009Z,99524.40
2018-11-20T06:04:02.158Z,99509.17
2018-11-20T06:07:43.682Z,99511.70
2018-11-20T06:11:09.376Z,99505.22
2018-11-20T06:14:30.924Z,99508.27
2018-11-20T06:18:09.333Z,99511.73
2018-11-20T06:21:23.710Z,99521.36
2018-11-20T06:24:53.920Z,99525.26
2018-11-20T06:28:26.150Z,99510.04
2018-11-20T06:31:50.820Z,99508.72
2018-11-20T06:35:17.143Z,99508.25
2018-11-20T06:38:38.881Z,99510.42
2018-11-20T06:42:00.774Z,99506.04
2018-11-20T06:45:22.847Z,99509.61
2018-11-20T06:48:52.240Z,99508.69
2018-11-20T06:52:14.249Z,99505.67
2018-11-20T06:55:38.781Z,99513.95
2018-11-20T06:59:10.839Z,99505.66
2018-11-20T07:02:32.609Z,99506.09
2018-11-20T07:06:07.908Z,99510.02
2018-11-20T07:09:27.103Z,99503.02
2018-11-20T07:12:47.493Z,99502.58
2018-11-20T07:17:04.087Z,99496.50
2018-11-20T07:20:42.531Z,99492.14
2018-11-20T07:24:08.409Z,99489.06
2018-11-20T07:27:46.640Z,99489.41
2018-11-20T07:31:08.438Z,99487.78
2018-11-20T07:34:31.605Z,99489.47
2018-11-20T07:38:00.907Z,99479.06
2018-11-20T07:41:26.938Z,99492.57
2018-11-20T07:44:55.755Z,99482.98
2018-11-20T07:48:18.062Z,99479.88
2018-11-20T07:51:45.142Z,99479.91
2018-11-20T07:55:17.189Z,99483.83
2018-11-20T07:58:38.761Z,99485.08
2018-11-20T08:02:02.007Z,99484.20
2018-11-20T08:05:18.947Z,99491.19
2018-11-20T08:08:46.074Z,99490.78
2018-11-20T08:12:08.661Z,99501.66
2018-11-20T08:15:20.707Z,99501.25
2018-11-20T08:18:43.825Z,99501.13
2018-11-20T08:22:05.452Z,99504.22
2018-11-20T08:25:34.667Z,99497.14
2018-11-20T08:29:00.539Z,99498.52
2018-11-20T08:32:17.783Z,99495.86
2018-11-20T08:35:41.034Z,99499.86
2018-11-20T08:39:13.744Z,99498.48
2018-11-20T08:42:35.428Z,99490.59
2018-11-20T08:45:57.369Z,99485.42
2018-11-20T08:49:20.550Z,99488.85
2018-11-20T08:52:52.758Z,99495.43
2018-11-20T08:56:17.546Z,99490.29
2018-11-20T08:59:39.703Z,99490.22
2018-11-20T09:03:12.100Z,99498.11
2018-11-20T09:06:43.887Z,99497.33
2018-11-20T09:10:05.798Z,99490.23
2018-11-20T09:13:41.046Z,99480.66
2018-11-20T09:17:03.126Z,99484.96
2018-11-20T09:20:32.276Z,99483.65
2018-11-20T09:24:04.401Z,99477.50
2018-11-20T09:27:34.099Z,99474.45
2018-11-20T09:30:55.703Z,99459.62
2018-11-20T09:34:18.886Z,99460.02
2018-11-20T09:37:40.893Z,99458.27
2018-11-20T09:41:09.696Z,99463.03
2018-11-20T09:44:44.798Z,99453.91
2018-11-20T09:48:13.721Z,99453.03
2018-11-20T09:51:35.398Z,99459.94
2018-11-20T09:54:57.797Z,99460.41
2018-11-20T09:58:23.908Z,99455.14
2018-11-20T10:01:47.149Z,99453.47
2018-11-20T10:05:13.079Z,99452.52
2018-11-20T10:08:39.101Z,99450.77
2018-11-20T10:12:00.869Z,99448.62
2018-11-20T10:15:30.629Z,99454.31
2018-11-20T10:19:02.426Z,99448.59
2018-11-20T10:22:24.175Z,99448.23
2018-11-20T10:25:49.520Z,99442.05
2018-11-20T10:29:07.328Z,99441.56
2018-11-20T10:32:36.492Z,99446.33
2018-11-20T10:36:11.690Z,99433.66
2018-11-20T10:39:37.669Z,99427.12
2018-11-20T10:43:00.056Z,99426.80
2018-11-20T10:46:26.110Z,99428.47
2018-11-20T10:49:49.280Z,99428.47
2018-11-20T10:53:06.665Z,99424.05
2018-11-20T10:56:38.651Z,99424.98
2018-11-20T11:00:00.807Z,99431.03
2018-11-20T11:03:22.727Z,99426.23
2018-11-20T11:06:49.074Z,99424.97
2018-11-20T11:09:57.623Z,99408.34
2018-11-20T11:13:23.453Z,99395.68
2018-11-20T11:16:45.018Z,99395.16
2018-11-20T11:20:06.883Z,99390.39
2018-11-20T11:23:27.260Z,99386.47
2018-11-20T11:26:49.436Z,99371.56
2018-11-20T11:30:11.399Z,99365.84
2018-11-20T11:33:37.695Z,99366.33
2018-11-20T11:37:00.874Z,99356.66
2018-11-20T11:40:14.355Z,99364.85
2018-11-20T11:43:37.536Z,99354.77
2018-11-20T11:46:52.732Z,99362.13
2018-11-20T11:50:27.927Z,99375.83
2018-11-20T11:53:49.770Z,99367.09
2018-11-20T11:57:03.383Z,99365.30
2018-11-20T12:00:29.207Z,99359.68
2018-11-20T12:03:52.418Z,99366.66
2018-11-20T12:07:09.183Z,99362.06
2018-11-20T12:10:30.830Z,99361.10
2018-11-20T12:13:56.771Z,99356.73
2018-11-20T12:17:18.403Z,99356.78
2018-11-20T12:20:43.429Z,99354.26
2018-11-20T12:24:07.477Z,99355.04
2018-11-20T12:27:23.774Z,99351.11
2018-11-20T12:30:53.568Z,99353.28
2018-11-20T12:34:10.570Z,99365.12
2018-11-20T12:37:32.563Z,99360.77
2018-11-20T12:40:54.348Z,99351.17
2018-11-20T12:44:18.141Z,99342.04
2018-11-20T12:47:38.348Z,99339.32
2018-11-20T12:51:05.467Z,99325.41
2018-11-20T12:54:23.745Z,99341.56
2018-11-20T12:57:45.720Z,99346.30
2018-11-20T13:01:12.592Z,99338.88
2018-11-20T13:04:38.570Z,99342.42
2018-11-20T13:08:01.753Z,99345.92
2018-11-20T13:11:39.876Z,99341.06
2018-11-20T13:15:16.604Z,99341.94
2018-11-20T13:18:37.523Z,99333.25
2018-11-20T13:22:15.693Z,99332.39
2018-11-20T13:25:37.341Z,99335.88
2018-11-20T13:28:55.573Z,99336.31
2018-11-20T13:32:21.796Z,99336.31
2018-11-20T13:35:44.974Z,99344.06
2018-11-20T13:39:04.655Z,99344.62
2018-11-20T13:42:32.937Z,99343.67
2018-11-20T13:45:56.137Z,99346.73
2018-11-20T13:49:17.697Z,99347.56
2018-11-20T13:52:34.335Z,99345.81
2018-11-20T13:56:06.588Z,99344.51
2018-11-20T13:59:35.641Z,99337.91
2018-11-20T14:02:52.634Z,99332.28
2018-11-20T14:06:34.020Z,99327.85
2018-11-20T14:09:57.121Z,99328.78
2018-11-20T14:13:19.065Z,99327.86
2018-11-20T14:16:48.128Z,99327.92
2018-11-20T14:20:01.961Z,99337.91
2018-11-20T14:23:16.938Z,99330.53
2018-11-20T14:26:42.982Z,99319.56
2018-11-20T14:29:56.274Z,99327.48
2018-11-20T14:33:18.291Z,99318.80
2018-11-20T14:36:47.342Z,99307.02
2018-11-20T14:40:16.139Z,99299.55
2018-11-20T14:43:42.289Z,99306.59
2018-11-20T14:47:03.926Z,99300.55
2018-11-20T14:50:26.550Z,99296.61
2018-11-20T14:53:56.652Z,99301.55
2018-11-20T14:57:18.234Z,99292.55
2018-11-20T15:00:39.854Z,99294.30
2018-11-20T15:04:11.906Z,99291.66
2018-11-20T15:07:22.136Z,99290.31
2018-11-20T15:10:37.460Z,99284.31
2018-11-20T15:14:15.759Z,99282.08
2018-11-20T15:17:44.561Z,99283.81
2018-11-20T15:21:06.265Z,99278.69
2018-11-20T15:24:29.469Z,99279.57
2018-11-20T15:27:52.642Z,99283.56
2018-11-20T15:31:15.783Z,99284.50
2018-11-20T15:34:37.442Z,99293.82
2018-11-20T15:37:59.302Z,99307.39
2018-11-20T15:41:34.542Z,99314.77
2018-11-20T15:45:06.334Z,99313.83
2018-11-20T15:48:23.801Z,99324.89
2018-11-20T15:51:36.984Z,99324.94
2018-11-20T15:54:58.806Z,99329.20
2018-11-20T15:58:20.752Z,99320.48
2018-11-20T16:01:43.917Z,99332.00
2018-11-20T16:05:05.735Z,99332.31
2018-11-20T16:08:37.897Z,99327.55
2018-11-20T16:11:51.573Z,99339.50
2018-11-20T16:15:13.211Z,99335.48
2018-11-20T16:18:45.416Z,99347.23
2018-11-20T16:22:07.079Z,99343.69
2018-11-20T16:25:33.161Z,99350.20
2018-11-20T16:28:50.589Z,99353.33
2018-11-20T16:32:25.642Z,99346.39
2018-11-20T16:35:51.390Z,99345.52
2018-11-20T16:39:11.734Z,99342.55
2018-11-20T16:42:33.500Z,99346.83
2018-11-20T16:46:11.916Z,99345.56
2018-11-20T16:49:53.357Z,99345.16
2018-11-20T16:53:28.679Z,99344.52
2018-11-20T16:56:50.611Z,99351.06
2018-11-20T17:00:21.733Z,99340.20
2018-11-20T17:03:44.191Z,99353.20
2018-11-20T17:07:06.204Z,99361.66
2018-11-20T17:10:22.812Z,99366.42
2018-11-20T17:13:48.598Z,99362.45
2018-11-20T17:17:11.796Z,99363.00
2018-11-20T17:20:33.587Z,99370.81
2018-11-20T17:24:12.191Z,99363.84
2018-11-20T17:27:44.498Z,99361.70
2018-11-20T17:31:06.499Z,99351.63
2018-11-20T17:34:42.287Z,99340.20
2018-11-20T17:38:23.433Z,99338.37
2018-11-20T17:41:46.755Z,99343.21
2018-11-20T17:45:29.134Z,99337.20
2018-11-20T17:48:58.145Z,99332.44
2018-11-20T17:52:20.039Z,99329.83
2018-11-20T17:55:52.559Z,99319.84
2018-11-20T17:59:24.583Z,99308.45
2018-11-20T18:02:46.652Z,99315.00
2018-11-20T18:06:16.304Z,99313.34
2018-11-20T18:09:38.188Z,99318.53
2018-11-20T18:13:07.476Z,99332.88
2018-11-20T18:16:39.859Z,99353.84
2018-11-20T18:19:56.237Z,99351.16
2018-11-20T18:23:19.523Z,99365.55
2018-11-20T18:26:41.638Z,99369.94
2018-11-20T18:30:05.635Z,99369.94
2018-11-20T18:33:37.825Z,99379.58
2018-11-20T18:37:04.323Z,99369.91
2018-11-20T18:40:26.900Z,99366.38
2018-11-20T18:43:59.063Z,99369.94
2018-11-20T18:47:37.254Z,99369.03
2018-11-20T18:51:03.513Z,99365.94
2018-11-20T18:54:17.050Z,99351.67
2018-11-20T18:57:34.225Z,99331.60
2018-11-20T19:00:57.695Z,99319.36
2018-11-20T19:04:24.012Z,99302.58
2018-11-20T19:07:47.390Z,99294.17
2018-11-20T19:11:09.210Z,99291.83
2018-11-20T19:14:31.166Z,99302.00
2018-11-20T19:17:57.586Z,99302.52
2018-11-20T19:21:18.793Z,99311.23
2018-11-20T19:24:50.813Z,99322.25
2018-11-20T19:28:12.970Z,99327.52
2018-11-20T19:31:41.173Z,99341.86
2018-11-20T19:34:57.498Z,99363.24
2018-11-20T19:38:26.850Z,99372.37
2018-11-20T19:41:43.402Z,99383.70
2018-11-20T19:45:06.604Z,99379.31
2018-11-20T19:48:22.775Z,99382.36
2018-11-20T19:51:44.791Z,99386.69
2018-11-20T19:55:06.840Z,99386.31
2018-11-20T19:58:33.062Z,99390.61
2018-11-20T20:01:56.323Z,99386.66
2018-11-20T20:05:19.478Z,99390.61
2018-11-20T20:08:33.103Z,99399.77
2018-11-20T20:11:59.160Z,99408.95
2018-11-20T20:15:20.815Z,99418.48
2018-11-20T20:18:56.079Z,99417.64
2018-11-20T20:22:18.127Z,99416.70
2018-11-20T20:25:44.136Z,99423.72
2018-11-20T20:29:05.806Z,99425.95
2018-11-20T20:32:34.817Z,99441.17
2018-11-20T20:36:13.094Z,99438.20
2018-11-20T20:39:36.442Z,99454.70
2018-11-20T20:43:05.452Z,99467.37
2018-11-20T20:46:20.769Z,99458.64
2018-11-20T20:49:42.572Z,99452.05
2018-11-20T20:53:04.478Z,99462.05
2018-11-20T20:56:26.307Z,99456.92
2018-11-20T20:59:55.280Z,99438.56
2018-11-20T21:03:17.092Z,99432.05
2018-11-20T21:06:52.716Z,99435.13
2018-11-20T21:13:33.145Z,99434.05
2018-11-20T21:17:04.088Z,99439.76
2018-11-20T21:20:32.228Z,99444.75
2018-11-20T21:23:53.196Z,99451.32
2018-11-20T21:27:30.528Z,99459.18
2018-11-20T21:31:01.448Z,99454.45
2018-11-20T21:34:19.337Z,99449.20
2018-11-20T21:37:41.474Z,99452.27
2018-11-20T21:41:15.674Z,99456.66
2018-11-20T21:44:40.317Z,99453.60
2018-11-20T21:48:02.382Z,99461.45
2018-11-20T21:51:17.756Z,99482.34
2018-11-20T21:54:42.237Z,99468.42
2018-11-20T21:58:22.470Z,99463.64
2018-11-20T22:01:43.059Z,99483.22
2018-11-20T22:05:43.177Z,99501.08
2018-11-20T22:09:23.606Z,99513.72
2018-11-20T22:12:44.232Z,99506.75
2018-11-20T22:16:08.942Z,99520.23
2018-11-20T22:19:29.420Z,99516.34
2018-11-20T22:22:50.325Z,99529.37
2018-11-20T22:26:27.522Z,99523.72
2018-11-20T22:30:01.544Z,99537.20
2018-11-20T22:33:22.662Z,99540.28
2018-11-20T22:36:43.467Z,99548.09
2018-11-20T22:39:58.683Z,99545.48
2018-11-20T22:43:20.698Z,99553.31
2018-11-20T22:46:54.683Z,99547.22
2018-11-20T22:50:16.733Z,99551.16
2018-11-20T22:53:37.296Z,99560.27
2018-11-20T22:56:53.864Z,99552.42
2018-11-20T23:00:24.982Z,99551.58
2018-11-20T23:03:48.289Z,99562.03
2018-11-20T23:07:09.298Z,99560.70
2018-11-20T23:10:13.739Z,99558.96
2018-11-20T23:13:16.165Z,99568.55
2018-11-20T23:16:18.584Z,99561.09
2018-11-20T23:19:20.998Z,99567.23
2018-11-20T23:22:23.446Z,99558.47
2018-11-20T23:25:25.903Z,99559.38
2018-11-20T23:28:28.298Z,99560.21
2018-11-20T23:31:30.773Z,99577.19
2018-11-20T23:34:33.206Z,99568.37
2018-11-20T23:37:36.037Z,99571.52
2018-11-20T23:40:38.452Z,99575.47
2018-11-20T23:43:40.884Z,99574.58
2018-11-20T23:46:43.316Z,99569.41
2018-11-20T23:49:45.769Z,99572.36
2018-11-20T23:52:48.190Z,99577.08
2018-11-20T23:55:50.605Z,99563.66
2018-11-20T23:58:53.051Z,99568.45
